Meridian Naval Air Station
KNMM : now visible

Airfield :











YOU CAN JOIN US ON...

 
LOGIN :

Register | Disclaimer

   EN    FR    IT 

 









Legend :    VFR   Marginal VFR   IFR   Intensive IFR   Very Intensive IFR
Visi :
Ceiling :
>= 8 km
>= 3000ft
5 to 8 km
1000 to 3000 ft
1500m to 5 km
500 to 1000 ft
800 to 1500m
200 to 500 ft
< 800m
< 200 ft
Symbols :   Thunderstorms  Fog  Heavy snow  Heavy precipitations  Wind > 20 kt






- Airport Elevation : 316 ft


KNMM - Meridian Naval Air Station

CURRENT METAR :
  • 241656Z 21007G14KT 10SM CLR 19/04 A3012 RMK AO2 SLP209 T01940039

EXPIRED METARs :
  • 241556Z 22007KT 10SM CLR 17/04 A3013 RMK AO2 SLP213 T01720044
  • 241456Z 00000KT 10SM CLR 14/01 A3014 RMK AO2 SLP218 T01390011 51009

TAF TAF KNMM
Valid from the 24 at 15:00 until the 25 at 15:00 UTC


2415/2515 20006KT 9999 SKC QNH3010INS
FM241800 22009G15KT 9999 FEW050 QNH3002INS
FM242200 23010KT 9999 SCT030 SCT060 QNH3003INS
FM250100 VRB06KT 9999 SCT015 BKN030 QNH3005INS
TEMPO 2506/2512 6000 VCSH BR BKN008 OVC014 AUTOMATED SENSOR METWATCH 2505 TIL 2511 T23/2421Z T10/2510Z FN20082
KZME FIR / North America



MET'MAP, your aeronautical weather chart ! - Copyright ORBIFLY December 2007 - Disclaimer

ORBIFLY MET'MAP TEAM :

Programming & Development : Alexandra Zaïnal
Concept & original design : Baudouin d'Aumeries
Assistance for programming : Marc-Olivier Méhu
Technical & hardware support : Manuel Goepfert

Contact : metmap@orbifly.com




SOURCES & CREDITS :

   NOAA       Earth
Advisory